Time;durP1;ratioP1;P1;durP2;ratioP2;P2;SDS_P1;SDS_P2;PMS_P1;PMS_P2;Temp;Humidity;BMP_temperature;BMP_pressure;BME280_temperature;BME280_humidity;BME280_pressure;Samples;Min_cycle;Max_cycle;Signal;HPM_P1;HPM_P2
2023/12/02 00:07:08;;;;;;;35.30;26.20;;;;;;;-3.96;100.00;98503.27;434020;1253;141643;-66
2023/12/02 00:17:14;;;;;;;35.50;26.80;;;;;;;-4.00;100.00;98483.18;434759;1252;141915;-67
2023/12/02 00:27:21;;;;;;;39.80;28.80;;;;;;;-4.06;100.00;98478.86;434485;1253;141338;-66
2023/12/02 00:37:27;;;;;;;38.30;31.50;;;;;;;-4.12;100.00;98464.46;435081;1254;140478;-66
2023/12/02 00:47:34;;;;;;;40.00;28.90;;;;;;;-4.16;100.00;98453.45;436915;1254;140864;-66
2023/12/02 00:57:40;;;;;;;50.00;36.10;;;;;;;-4.21;100.00;98448.42;434724;1250;141573;-67
2023/12/02 01:07:46;;;;;;;49.10;35.80;;;;;;;-4.25;100.00;98446.81;438795;1253;142436;-66
2023/12/02 01:17:53;;;;;;;50.30;36.60;;;;;;;-4.29;100.00;98449.80;452137;1250;140967;-67
2023/12/02 01:27:59;;;;;;;81.00;55.40;;;;;;;-4.31;100.00;98456.16;437431;1250;142467;-66
2023/12/02 01:38:06;;;;;;;76.40;54.20;;;;;;;-4.33;100.00;98456.73;437197;1250;140821;-66
2023/12/02 01:48:12;;;;;;;75.10;51.30;;;;;;;-4.41;100.00;98457.73;435084;1253;141561;-67
2023/12/02 01:58:19;;;;;;;69.80;49.90;;;;;;;-4.51;100.00;98464.78;442878;1250;141507;-66
2023/12/02 02:08:25;;;;;;;73.10;52.40;;;;;;;-4.56;100.00;98469.15;438257;1253;140579;-67
2023/12/02 02:18:32;;;;;;;70.90;51.60;;;;;;;-4.59;100.00;98474.69;436977;1253;140525;-67
2023/12/02 02:28:39;;;;;;;73.00;49.20;;;;;;;-4.65;100.00;98472.93;438973;1250;141457;-66
2023/12/02 02:38:45;;;;;;;65.50;48.00;;;;;;;-4.68;100.00;98470.58;434376;1250;141253;-67
2023/12/02 02:48:52;;;;;;;68.40;48.10;;;;;;;-4.66;100.00;98469.36;434521;1250;140919;-66
2023/12/02 02:58:58;;;;;;;60.50;44.40;;;;;;;-4.64;100.00;98453.60;434845;1253;140360;-66
2023/12/02 03:09:06;;;;;;;58.60;40.20;;;;;;;-4.60;100.00;98457.46;441737;1250;141924;-66
2023/12/02 03:19:12;;;;;;;62.90;43.50;;;;;;;-4.59;100.00;98456.42;435928;1253;140722;-67
2023/12/02 03:29:18;;;;;;;61.10;39.70;;;;;;;-4.54;100.00;98443.50;435239;1254;140008;-67
2023/12/02 03:39:24;;;;;;;58.80;40.70;;;;;;;-4.47;100.00;98435.82;434616;1254;140419;-66
2023/12/02 03:49:31;;;;;;;62.10;45.40;;;;;;;-4.42;100.00;98430.93;434971;1250;141414;-66
2023/12/02 03:59:38;;;;;;;58.20;42.60;;;;;;;-4.38;100.00;98428.27;434870;1252;140829;-66
2023/12/02 04:09:44;;;;;;;58.00;43.10;;;;;;;-4.35;100.00;98415.41;434586;1253;141764;-66
2023/12/02 04:19:50;;;;;;;74.60;52.70;;;;;;;-4.32;100.00;98424.58;434650;1253;141537;-67
2023/12/02 04:29:57;;;;;;;72.00;48.60;;;;;;;-4.31;100.00;98427.98;434708;1250;140085;-65
2023/12/02 04:40:09;;;;;;;54.10;42.00;;;;;;;-4.28;100.00;98407.40;434737;1253;141145;-66
2023/12/02 04:50:15;;;;;;;63.60;45.40;;;;;;;-4.30;100.00;98409.66;435221;1253;141216;-66
2023/12/02 05:00:23;;;;;;;65.00;44.90;;;;;;;-4.32;100.00;98421.15;434920;1254;140112;-66
2023/12/02 05:10:30;;;;;;;64.40;47.80;;;;;;;-4.32;100.00;98425.08;438325;1250;140886;-66
2023/12/02 05:20:36;;;;;;;62.90;48.10;;;;;;;-4.36;100.00;98428.42;434770;1253;140551;-66
2023/12/02 05:30:42;;;;;;;62.60;46.80;;;;;;;-4.48;100.00;98412.45;435665;1254;140647;-66
2023/12/02 05:40:49;;;;;;;62.40;44.60;;;;;;;-4.62;100.00;98399.74;437252;1253;141149;-67
2023/12/02 05:50:55;;;;;;;64.10;44.40;;;;;;;-4.71;100.00;98387.50;440302;1253;141106;-67
2023/12/02 06:01:02;;;;;;;55.70;39.80;;;;;;;-4.75;100.00;98367.92;435266;1254;140700;-67
2023/12/02 06:11:08;;;;;;;58.60;40.10;;;;;;;-4.75;100.00;98356.00;434764;1250;140348;-66
2023/12/02 06:21:15;;;;;;;55.90;40.00;;;;;;;-4.71;100.00;98377.23;435290;1255;140669;-67
2023/12/02 06:31:21;;;;;;;55.10;37.40;;;;;;;-4.66;100.00;98388.58;440751;1254;140892;-66
2023/12/02 06:41:28;;;;;;;56.80;41.70;;;;;;;-4.59;100.00;98398.16;436803;1254;140926;-66
2023/12/02 06:51:34;;;;;;;54.80;38.80;;;;;;;-4.51;100.00;98400.71;436687;1252;141105;-67
2023/12/02 07:01:41;;;;;;;74.80;48.30;;;;;;;-4.41;100.00;98393.66;436492;1254;140257;-66
2023/12/02 07:11:47;;;;;;;71.40;49.00;;;;;;;-4.38;100.00;98398.89;434809;1254;141131;-67
2023/12/02 07:21:53;;;;;;;78.90;51.80;;;;;;;-4.38;100.00;98393.61;439056;1253;141316;-66
2023/12/02 07:32:00;;;;;;;79.50;52.80;;;;;;;-4.30;100.00;98422.13;434395;1253;140590;-67
2023/12/02 07:42:07;;;;;;;80.00;54.70;;;;;;;-4.09;100.00;98444.06;434816;1256;140078;-66
2023/12/02 07:52:13;;;;;;;72.60;49.70;;;;;;;-3.94;100.00;98436.36;440697;1253;140143;-66
2023/12/02 08:02:19;;;;;;;72.20;48.90;;;;;;;-3.86;100.00;98442.48;438917;1254;140468;-67
2023/12/02 08:12:26;;;;;;;74.00;50.20;;;;;;;-3.74;100.00;98445.30;436399;1253;140829;-67
2023/12/02 08:22:33;;;;;;;73.90;48.80;;;;;;;-3.63;100.00;98456.48;435599;1253;140891;-69
2023/12/02 08:32:39;;;;;;;73.90;49.10;;;;;;;-3.49;100.00;98472.91;437194;1253;141756;-67
2023/12/02 08:42:45;;;;;;;60.90;39.40;;;;;;;-3.45;100.00;98485.82;434911;1255;140562;-67
2023/12/02 08:52:52;;;;;;;63.80;40.10;;;;;;;-3.45;100.00;98483.95;434690;1253;143777;-66
2023/12/02 09:02:59;;;;;;;58.40;37.70;;;;;;;-3.39;100.00;98488.59;437480;1254;141457;-67
2023/12/02 09:13:07;;;;;;;56.90;38.90;;;;;;;-3.45;100.00;98505.16;441110;1253;141666;-66
2023/12/02 09:23:14;;;;;;;65.50;39.20;;;;;;;-3.29;100.00;98489.55;435232;1253;141331;-66
2023/12/02 09:33:21;;;;;;;61.10;39.10;;;;;;;-2.79;100.00;98467.52;438875;1252;141212;-66
2023/12/02 09:43:38;;;;;;;55.40;36.80;;;;;;;-2.12;100.00;98455.67;434617;1254;140678;-66
2023/12/02 09:53:55;;;;;;;46.90;31.30;;;;;;;-1.68;100.00;98473.86;439731;1253;141349;-65
2023/12/02 10:04:22;;;;;;;46.00;31.30;;;;;;;-1.64;100.00;98456.58;441876;1250;141488;-66
2023/12/02 10:14:28;;;;;;;;;;;;;;;-1.61;100.00;98433.29;434614;1253;142608;-65
2023/12/02 10:24:37;;;;;;;;;;;;;;;-1.59;100.00;98428.27;435071;1253;126028;-67
2023/12/02 10:34:50;;;;;;;39.40;24.50;;;;;;;-1.63;100.00;98424.96;435249;1250;126566;-65
2023/12/02 10:45:04;;;;;;;41.70;25.40;;;;;;;-1.58;100.00;98447.80;437646;1251;142153;-65
2023/12/02 10:55:12;;;;;;;47.50;30.00;;;;;;;-1.62;100.00;98451.17;436896;1251;141092;-66
2023/12/02 11:05:34;;;;;;;47.60;27.70;;;;;;;-1.71;100.00;98438.78;436574;1251;139935;-66
2023/12/02 11:16:10;;;;;;;44.20;25.60;;;;;;;-1.69;100.00;98376.09;434405;1254;140751;-66
2023/12/02 11:26:27;;;;;;;36.70;23.50;;;;;;;-1.58;100.00;98389.95;438546;1251;140011;-66
2023/12/02 11:36:54;;;;;;;42.20;25.20;;;;;;;-1.61;100.00;98417.52;436086;1249;140505;-66
2023/12/02 11:47:27;;;;;;;44.40;26.10;;;;;;;-1.73;100.00;98435.05;435759;1251;140351;-66
2023/12/02 11:57:47;;;;;;;45.50;30.80;;;;;;;-1.81;100.00;98429.16;434517;1253;141135;-66
2023/12/02 12:08:06;;;;;;;44.90;26.70;;;;;;;-1.89;100.00;98430.41;436860;1251;140875;-66
2023/12/02 12:18:13;;;;;;;42.40;24.20;;;;;;;-2.00;100.00;98432.84;435072;1254;141822;-67
2023/12/02 12:28:20;;;;;;;53.20;30.00;;;;;;;-2.14;100.00;98424.51;435255;1253;141416;-66
2023/12/02 12:38:30;;;;;;;43.20;25.00;;;;;;;-2.23;100.00;98414.66;434833;1251;141161;-67
2023/12/02 12:48:39;;;;;;;47.00;26.80;;;;;;;-2.30;100.00;98406.82;434884;1253;140205;-68
2023/12/02 12:58:55;;;;;;;53.60;30.50;;;;;;;-2.47;100.00;98407.16;435002;1254;141312;-67
2023/12/02 13:09:08;;;;;;;43.20;25.20;;;;;;;-2.60;100.00;98410.27;437309;1250;142735;-67
2023/12/02 13:19:16;;;;;;;48.60;28.00;;;;;;;-2.81;100.00;98406.27;440877;1249;140111;-65
2023/12/02 13:29:26;;;;;;;35.90;25.20;;;;;;;-3.03;100.00;98384.94;435355;1254;140696;-66
2023/12/02 13:39:39;;;;;;;42.90;26.00;;;;;;;-3.14;100.00;98379.77;435684;1253;140433;-67
2023/12/02 13:49:46;;;;;;;50.30;30.20;;;;;;;-3.24;100.00;98383.29;436056;1249;141379;-64
2023/12/02 14:00:04;;;;;;;44.80;26.00;;;;;;;-3.30;100.00;98382.60;436630;1251;140204;-65
2023/12/02 14:10:14;;;;;;;45.10;25.60;;;;;;;-3.32;100.00;98390.36;435537;1251;143007;-65
2023/12/02 14:20:37;;;;;;;47.10;26.90;;;;;;;-3.39;100.00;98393.59;437021;1250;140951;-66
2023/12/02 14:31:18;;;;;;;43.60;27.20;;;;;;;-3.50;100.00;98393.05;435133;1250;141547;-65
2023/12/02 14:41:41;;;;;;;51.00;31.10;;;;;;;-3.58;100.00;98421.98;435338;1253;141751;-66
2023/12/02 14:51:49;;;;;;;48.60;30.00;;;;;;;-3.63;100.00;98421.42;438327;1250;140550;-65
2023/12/02 15:01:55;;;;;;;43.10;27.50;;;;;;;-3.68;100.00;98417.12;435623;1254;140543;-65
2023/12/02 15:12:07;;;;;;;43.20;25.10;;;;;;;-3.72;100.00;98421.31;436183;1249;140302;-66
2023/12/02 15:22:23;;;;;;;46.90;27.00;;;;;;;-3.76;100.00;98435.09;436287;1253;141912;-66
2023/12/02 15:32:29;;;;;;;52.10;28.90;;;;;;;-3.75;100.00;98433.02;435725;1253;140918;-65
2023/12/02 15:42:36;;;;;;;47.50;29.30;;;;;;;-3.74;100.00;98467.71;434701;1250;142418;-66
2023/12/02 15:52:43;;;;;;;43.70;26.10;;;;;;;-3.69;100.00;98517.70;435641;1251;140337;-66
2023/12/02 16:02:50;;;;;;;54.00;32.00;;;;;;;-3.60;100.00;98511.17;435684;1251;142063;-71
2023/12/02 16:12:56;;;;;;;57.20;30.40;;;;;;;-3.53;100.00;98500.38;437253;1253;141746;-74
2023/12/02 16:23:03;;;;;;;48.50;29.40;;;;;;;-3.46;100.00;98498.17;440410;1250;140946;-69
2023/12/02 16:33:10;;;;;;;44.00;27.40;;;;;;;-3.40;100.00;98471.15;439164;1250;141367;-69
2023/12/02 16:43:17;;;;;;;46.10;26.00;;;;;;;-3.39;100.00;98462.77;438668;1253;141931;-63
2023/12/02 16:53:25;;;;;;;36.00;23.80;;;;;;;-3.37;100.00;98460.13;435323;1250;140515;-67
2023/12/02 17:03:35;;;;;;;32.90;20.40;;;;;;;-3.37;100.00;98459.27;439947;1252;140727;-74
2023/12/02 17:13:54;;;;;;;32.40;20.80;;;;;;;-3.36;100.00;98477.21;440331;1253;142243;-72
2023/12/02 17:24:02;;;;;;;31.40;21.80;;;;;;;-3.34;100.00;98502.33;435340;1250;141702;-64
2023/12/02 17:34:08;;;;;;;37.40;24.60;;;;;;;-3.30;100.00;98504.63;434872;1251;140447;-70
2023/12/02 17:44:15;;;;;;;38.50;23.40;;;;;;;-3.26;100.00;98511.04;434624;1250;140552;-65
2023/12/02 17:54:21;;;;;;;41.00;26.70;;;;;;;-3.24;100.00;98475.19;434888;1251;140287;-69
2023/12/02 18:04:27;;;;;;;35.10;23.80;;;;;;;-3.22;100.00;98432.89;434844;1253;142582;-66
2023/12/02 18:14:34;;;;;;;35.00;24.20;;;;;;;-3.22;100.00;98472.61;439912;1250;141730;-64
2023/12/02 18:24:41;;;;;;;33.40;24.50;;;;;;;-3.20;100.00;98561.70;436581;1250;140162;-63
2023/12/02 18:34:48;;;;;;;38.30;24.80;;;;;;;-3.18;100.00;98568.69;434869;1253;140928;-67
2023/12/02 18:44:54;;;;;;;37.00;24.40;;;;;;;-3.16;100.00;98507.02;434788;1250;141073;-63
2023/12/02 18:55:01;;;;;;;36.10;23.90;;;;;;;-3.19;100.00;98459.16;434841;1253;140020;-61
2023/12/02 19:05:08;;;;;;;38.60;26.30;;;;;;;-3.21;100.00;98539.33;438179;1250;141509;-64
2023/12/02 19:15:16;;;;;;;41.60;27.10;;;;;;;-3.18;100.00;98583.25;435922;1253;140955;-65
2023/12/02 19:25:22;;;;;;;40.70;26.70;;;;;;;-3.15;100.00;98601.85;440517;1250;140331;-65
2023/12/02 19:35:29;;;;;;;44.60;30.10;;;;;;;-3.12;100.00;98600.40;435183;1252;140555;-65
2023/12/02 19:45:36;;;;;;;46.20;29.20;;;;;;;-3.10;100.00;98603.27;440236;1249;141698;-65
2023/12/02 19:55:43;;;;;;;50.20;28.90;;;;;;;-3.10;100.00;98620.21;438710;1249;140117;-66
2023/12/02 20:05:50;;;;;;;51.90;31.20;;;;;;;-3.09;100.00;98653.23;436302;1253;141406;-71
2023/12/02 20:15:56;;;;;;;52.20;33.40;;;;;;;-3.06;100.00;98682.13;435825;1253;140225;-67
2023/12/02 20:26:03;;;;;;;49.20;29.70;;;;;;;-3.04;100.00;98700.58;434831;1253;142344;-67
2023/12/02 20:36:11;;;;;;;48.70;31.70;;;;;;;-3.04;100.00;98709.79;435204;1250;140172;-67
2023/12/02 20:46:18;;;;;;;47.80;29.70;;;;;;;-3.05;100.00;98712.56;440655;1250;142193;-67
2023/12/02 20:56:24;;;;;;;48.50;28.90;;;;;;;-3.03;100.00;98708.58;435195;1250;140538;-67
2023/12/02 21:06:31;;;;;;;48.80;28.90;;;;;;;-3.00;100.00;98706.28;434903;1253;142478;-66
2023/12/02 21:16:37;;;;;;;47.30;30.20;;;;;;;-2.99;100.00;98714.67;438814;1252;140746;-66
2023/12/02 21:26:47;;;;;;;51.00;29.00;;;;;;;-2.98;100.00;98722.52;438498;1250;141130;-66
2023/12/02 21:36:55;;;;;;;50.90;30.10;;;;;;;-2.99;100.00;98735.22;437742;1253;142712;-66
2023/12/02 21:47:02;;;;;;;40.50;26.10;;;;;;;-3.03;100.00;98746.43;434992;1254;141285;-66
2023/12/02 21:57:12;;;;;;;41.30;26.30;;;;;;;-3.06;100.00;98755.21;439623;1250;141581;-67
2023/12/02 22:07:23;;;;;;;41.30;26.80;;;;;;;-3.05;100.00;98765.84;436063;1253;141408;-66
2023/12/02 22:17:31;;;;;;;49.90;31.10;;;;;;;-3.04;100.00;98778.30;437693;1253;140864;-67
2023/12/02 22:27:39;;;;;;;49.10;28.80;;;;;;;-3.02;100.00;98790.23;434966;1253;142300;-65
2023/12/02 22:37:45;;;;;;;48.70;29.40;;;;;;;-3.00;100.00;98802.19;436651;1253;140464;-66
2023/12/02 22:47:52;;;;;;;43.60;27.80;;;;;;;-2.98;100.00;98812.42;439806;1252;140930;-66
2023/12/02 22:58:01;;;;;;;43.00;27.60;;;;;;;-2.95;100.00;98818.35;434708;1253;141379;-67
2023/12/02 23:08:11;;;;;;;39.40;24.90;;;;;;;-2.96;100.00;98824.02;441246;1252;140953;-66
2023/12/02 23:18:18;;;;;;;38.20;24.40;;;;;;;-2.96;100.00;98827.45;435279;1253;140376;-67
2023/12/02 23:28:27;;;;;;;38.90;25.90;;;;;;;-2.96;100.00;98832.23;438367;1251;142658;-67
2023/12/02 23:38:36;;;;;;;37.40;24.10;;;;;;;-2.97;100.00;98841.34;434884;1254;141686;-67
2023/12/02 23:48:42;;;;;;;34.20;24.30;;;;;;;-2.99;100.00;98848.40;440555;1251;140890;-66
2023/12/02 23:58:49;;;;;;;40.00;25.60;;;;;;;-3.02;100.00;98847.77;435340;1250;168408;-67
